Time;durP1;ratioP1;P1;durP2;ratioP2;P2;SDS_P1;SDS_P2;PMS_P1;PMS_P2;Temp;Humidity;BMP_temperature;BMP_pressure;BME280_temperature;BME280_humidity;BME280_pressure;Samples;Min_cycle;Max_cycle;Signal;HPM_P1;HPM_P2
2023/04/03 00:00:24;;;;;;;5.43;2.03;;;;;;;-2.12;100.00;102575.41;4923145;29;20285;-77
2023/04/03 00:02:50;;;;;;;3.88;1.42;;;;;;;-2.15;100.00;102576.34;4936176;29;20565;-76
2023/04/03 00:05:15;;;;;;;4.07;2.00;;;;;;;-2.15;100.00;102586.81;4919645;29;20405;-76
2023/04/03 00:07:40;;;;;;;11.00;2.28;;;;;;;-2.13;100.00;102595.50;4936659;29;20058;-76
2023/04/03 00:10:06;;;;;;;11.27;2.55;;;;;;;-2.15;100.00;102609.53;4933131;29;20028;-76
2023/04/03 00:12:32;;;;;;;;;;;;;;;-2.14;100.00;102622.56;4941273;28;20334;-76
2023/04/03 00:14:57;;;;;;;5.95;1.58;;;;;;;-2.22;100.00;102618.41;4919009;29;19978;-78
2023/04/03 00:17:23;;;;;;;7.70;2.13;;;;;;;-2.21;100.00;102634.06;4943906;29;20497;-77
2023/04/03 00:19:48;;;;;;;8.35;2.13;;;;;;;-2.29;100.00;102628.16;4932904;29;20074;-76
2023/04/03 00:22:13;;;;;;;2.88;1.30;;;;;;;-2.20;100.00;102648.88;4941470;28;20539;-77
2023/04/03 00:24:39;;;;;;;4.93;1.40;;;;;;;-2.29;100.00;102646.47;4941896;28;20541;-76
2023/04/03 00:27:04;;;;;;;8.75;2.15;;;;;;;-2.28;100.00;102647.31;4941632;29;20035;-76
2023/04/03 00:29:30;;;;;;;;;;;;;;;-2.28;100.00;102663.00;4941776;28;20051;-77
2023/04/03 00:31:55;;;;;;;10.50;2.75;;;;;;;-2.34;100.00;102659.66;4940557;29;20365;-76
2023/04/03 00:34:21;;;;;;;4.05;1.13;;;;;;;-2.36;100.00;102656.19;4927080;29;20094;-76
2023/04/03 00:36:46;;;;;;;7.03;1.98;;;;;;;-2.39;100.00;102650.16;4940716;28;20107;-76
2023/04/03 00:39:11;;;;;;;8.35;1.67;;;;;;;-2.39;100.00;102650.16;4919661;29;20549;-76
2023/04/03 00:41:37;;;;;;;5.53;2.63;;;;;;;-2.37;100.00;102658.81;4936629;28;20086;-76
2023/04/03 00:44:22;;;;;;;2.97;1.45;;;;;;;-2.37;100.00;102659.69;4935523;29;20035;-78
2023/04/03 00:46:48;;;;;;;7.47;1.67;;;;;;;-2.36;100.00;102663.19;4940605;28;20540;-75
2023/04/03 00:49:14;;;;;;;7.63;2.10;;;;;;;-2.37;100.00;102664.91;4926052;29;20107;-76
2023/04/03 00:51:39;;;;;;;9.07;2.17;;;;;;;-2.34;100.00;102671.88;4938392;29;20275;-76
2023/04/03 00:54:07;;;;;;;8.68;2.55;;;;;;;-2.34;100.00;102674.50;4941248;28;20035;-76
2023/04/03 00:56:35;;;;;;;9.57;1.58;;;;;;;-2.39;100.00;102658.00;4940707;29;20031;-76
2023/04/03 00:59:05;;;;;;;7.38;2.42;;;;;;;-2.38;100.00;102652.75;4937329;29;20032;-77
2023/04/03 01:01:31;;;;;;;7.40;1.48;;;;;;;-2.33;100.00;102663.97;4921481;29;20032;-76
2023/04/03 01:03:59;;;;;;;9.43;2.28;;;;;;;-2.35;100.00;102663.13;4940991;28;20035;-77
2023/04/03 01:06:31;;;;;;;6.40;1.92;;;;;;;-2.36;100.00;102658.81;4919286;29;20405;-78
2023/04/03 01:09:03;;;;;;;8.02;2.28;;;;;;;-2.42;100.00;102661.53;4939472;29;20055;-76
2023/04/03 01:11:29;;;;;;;12.73;1.83;;;;;;;-2.40;100.00;102666.75;4926001;29;20059;-76
2023/04/03 01:13:54;;;;;;;9.52;3.05;;;;;;;-2.46;100.00;102651.16;4924401;29;20037;-76
2023/04/03 01:16:20;;;;;;;7.60;2.05;;;;;;;-2.44;100.00;102665.09;4940158;29;20044;-76
2023/04/03 01:18:46;;;;;;;9.65;2.30;;;;;;;-2.43;100.00;102678.16;4938325;28;20038;-76
2023/04/03 01:21:38;;;;;;;9.52;3.28;;;;;;;-2.45;100.00;102679.94;4918680;29;20038;-76
2023/04/03 01:24:06;;;;;;;9.55;2.08;;;;;;;-2.50;100.00;102678.31;4917573;29;20421;-78
2023/04/03 01:26:33;;;;;;;6.30;2.30;;;;;;;-2.56;100.00;102666.19;4929644;29;20455;-77
2023/04/03 01:28:59;;;;;;;5.40;1.98;;;;;;;-2.60;100.00;102673.25;4940594;28;20243;-75
2023/04/03 01:31:31;;;;;;;8.52;1.90;;;;;;;-2.64;100.00;102671.59;4934604;29;20028;-77
2023/04/03 01:33:57;;;;;;;10.27;2.10;;;;;;;-2.71;100.00;102654.31;4936167;28;20064;-78
2023/04/03 01:36:29;;;;;;;5.32;1.55;;;;;;;-2.75;100.00;102660.47;4940062;29;20035;-77
2023/04/03 01:38:56;;;;;;;6.00;1.52;;;;;;;-2.75;100.00;102673.53;4922489;29;20036;-76
2023/04/03 01:41:22;;;;;;;4.28;1.40;;;;;;;-2.80;100.00;102664.94;4934407;29;20074;-76
2023/04/03 01:43:50;;;;;;;6.13;2.55;;;;;;;-2.82;100.00;102664.97;4935509;28;20039;-76
2023/04/03 01:46:16;;;;;;;5.30;2.33;;;;;;;-2.85;100.00;102656.31;4934325;29;20039;-77
2023/04/03 01:48:42;;;;;;;7.30;2.30;;;;;;;-2.90;100.00;102655.53;4938005;29;20891;-77
2023/04/03 01:51:08;;;;;;;7.80;1.80;;;;;;;-2.95;100.00;102663.50;4934666;29;20082;-78
2023/04/03 01:53:33;;;;;;;6.10;2.20;;;;;;;-2.84;100.00;102687.66;4932183;29;20110;-76
2023/04/03 01:55:58;;;;;;;8.55;2.55;;;;;;;-2.84;100.00;102686.78;4937471;28;20499;-76
2023/04/03 01:58:24;;;;;;;8.27;1.67;;;;;;;-2.84;100.00;102692.03;4940040;29;20050;-76
2023/04/03 02:00:51;;;;;;;9.98;3.40;;;;;;;-2.95;100.00;102676.56;4937910;29;20095;-76
2023/04/03 02:03:17;;;;;;;3.05;1.33;;;;;;;-2.89;100.00;102704.31;4923063;29;20058;-76
2023/04/03 02:05:42;;;;;;;7.95;2.28;;;;;;;-2.91;100.00;102703.47;4940203;29;20122;-77
2023/04/03 02:08:08;;;;;;;5.43;2.55;;;;;;;-2.95;100.00;102696.56;4943737;29;20451;-76
2023/04/03 02:10:34;;;;;;;3.03;1.52;;;;;;;-2.99;100.00;102694.03;4931806;29;20065;-76
2023/04/03 02:12:59;;;;;;;5.80;2.00;;;;;;;-3.01;100.00;102687.97;4946551;28;20371;-75
2023/04/03 02:15:25;;;;;;;7.47;1.92;;;;;;;-3.02;100.00;102681.03;4942976;29;20425;-76
2023/04/03 02:17:50;;;;;;;7.78;2.17;;;;;;;-3.04;100.00;102681.94;4946771;28;20654;-75
2023/04/03 02:20:16;;;;;;;6.32;2.10;;;;;;;-3.01;100.00;102693.19;4945966;29;20031;-76
2023/04/03 02:22:41;;;;;;;6.95;1.77;;;;;;;-3.05;100.00;102681.06;4944591;28;20042;-76
2023/04/03 02:25:07;;;;;;;;;;;;;;;-3.05;100.00;102681.06;4947163;29;20389;-77
2023/04/03 02:27:32;;;;;;;8.97;2.63;;;;;;;-3.02;100.00;102712.38;4942594;29;20045;-75
2023/04/03 02:29:57;;;;;;;7.22;2.53;;;;;;;-2.95;100.00;102739.28;4946276;29;20283;-75
2023/04/03 02:32:23;;;;;;;5.10;2.40;;;;;;;-2.99;100.00;102751.53;4941880;29;20114;-75
2023/04/03 02:34:48;;;;;;;;;;;;;;;-3.05;100.00;102746.41;4941263;28;20050;-75
2023/04/03 02:37:14;;;;;;;6.43;2.13;;;;;;;-3.10;100.00;102740.38;4946135;29;19911;-76
2023/04/03 02:39:40;;;;;;;14.20;3.67;;;;;;;-3.13;100.00;102743.06;4946274;29;20505;-75
2023/04/03 02:42:07;;;;;;;7.18;2.17;;;;;;;-3.09;100.00;102762.16;4946810;29;20094;-76
2023/04/03 02:44:33;;;;;;;8.73;2.65;;;;;;;-3.09;100.00;102765.66;4946581;28;20043;-75
2023/04/03 02:46:58;;;;;;;7.93;3.33;;;;;;;-3.15;100.00;102760.50;4946613;29;20047;-76
2023/04/03 02:49:23;;;;;;;10.20;3.17;;;;;;;-3.12;100.00;102760.44;4946427;29;20034;-75
2023/04/03 02:51:50;;;;;;;3.05;1.80;;;;;;;-3.20;100.00;102747.53;4946636;28;20031;-75
2023/04/03 02:54:16;;;;;;;7.70;2.83;;;;;;;-3.20;100.00;102738.81;4946674;28;20067;-76
2023/04/03 02:56:46;;;;;;;8.35;2.65;;;;;;;-3.25;100.00;102730.22;4946850;29;20799;-76
2023/04/03 02:59:11;;;;;;;15.40;2.85;;;;;;;-3.29;100.00;102718.06;4931516;29;20031;-75
2023/04/03 03:01:38;;;;;;;6.55;3.13;;;;;;;-3.31;100.00;102710.25;4942076;29;20028;-75
2023/04/03 03:04:03;;;;;;;6.70;2.10;;;;;;;-3.34;100.00;102699.88;4940956;28;20042;-75
2023/04/03 03:06:29;;;;;;;9.65;2.55;;;;;;;-3.33;100.00;102695.50;4946902;29;20035;-75
2023/04/03 03:08:55;;;;;;;;;;;;;;;-3.34;100.00;102694.66;4946506;29;20036;-75
2023/04/03 03:11:20;;;;;;;;;;;;;;;-3.31;100.00;102693.72;4947180;29;19915;-76
2023/04/03 03:13:46;;;;;;;7.40;2.95;;;;;;;-3.26;100.00;102708.44;4946237;28;19922;-75
2023/04/03 03:16:11;;;;;;;4.07;1.88;;;;;;;-3.41;100.00;102693.03;4946054;29;20063;-75
2023/04/03 03:18:36;;;;;;;11.95;2.60;;;;;;;-3.34;100.00;102709.47;4945787;29;20046;-76
2023/04/03 03:21:03;;;;;;;7.45;2.35;;;;;;;-3.33;100.00;102711.16;4942162;29;20044;-76
2023/04/03 03:23:31;;;;;;;13.85;3.22;;;;;;;-3.34;100.00;102712.94;4944334;28;20019;-75
2023/04/03 03:26:09;;;;;;;7.28;2.80;;;;;;;-3.37;100.00;102706.88;4946350;28;20054;-76
2023/04/03 03:28:36;;;;;;;5.45;2.25;;;;;;;-3.38;100.00;102699.94;4925874;29;20425;-76
2023/04/03 03:31:02;;;;;;;5.57;2.65;;;;;;;-3.43;100.00;102686.97;4945269;29;20062;-78
2023/04/03 03:33:29;;;;;;;12.30;2.05;;;;;;;-3.44;100.00;102699.16;4928369;29;20035;-75
2023/04/03 03:35:55;;;;;;;10.02;2.38;;;;;;;-3.41;100.00;102706.94;4946319;28;20042;-75
2023/04/03 03:38:20;;;;;;;;;;;;;;;-3.41;100.00;102714.78;4946205;29;20023;-76
2023/04/03 03:40:50;;;;;;;6.25;2.40;;;;;;;-3.49;100.00;102701.00;4946281;29;20779;-76
2023/04/03 03:43:18;;;;;;;8.95;2.45;;;;;;;-3.48;100.00;102707.91;4946213;28;20045;-76
2023/04/03 03:45:51;;;;;;;5.63;2.50;;;;;;;-3.43;100.00;102711.31;4940036;28;20039;-77
2023/04/03 03:48:17;;;;;;;4.55;2.28;;;;;;;-3.46;100.00;102711.38;4939354;29;20032;-81
2023/04/03 03:50:42;;;;;;;12.07;2.55;;;;;;;-3.51;100.00;102701.88;4940458;28;20016;-76
2023/04/03 03:53:07;;;;;;;9.52;2.97;;;;;;;-3.54;100.00;102704.53;4936484;29;20489;-75
2023/04/03 03:55:33;;;;;;;;;;;;;;;-3.43;100.00;102726.13;4942021;28;20024;-75
2023/04/03 03:57:59;;;;;;;8.65;2.65;;;;;;;-3.52;100.00;102727.13;4943352;29;19930;-79
2023/04/03 04:00:27;;;;;;;5.50;2.30;;;;;;;-3.59;100.00;102725.50;4936004;29;20336;-77
2023/04/03 04:02:55;;;;;;;6.68;2.70;;;;;;;-3.65;100.00;102720.38;4940982;29;20111;-76
2023/04/03 04:05:22;;;;;;;7.93;2.42;;;;;;;-3.64;100.00;102733.41;4943914;29;20140;-76
2023/04/03 04:07:48;;;;;;;11.38;2.83;;;;;;;-3.61;100.00;102740.31;4949808;29;20115;-75
2023/04/03 04:10:14;;;;;;;6.50;2.40;;;;;;;-3.69;100.00;102730.00;4948958;29;20527;-76
2023/04/03 04:12:40;;;;;;;10.23;4.40;;;;;;;-3.66;100.00;102734.31;4939563;28;20410;-76
2023/04/03 04:15:06;;;;;;;11.43;3.40;;;;;;;-3.68;100.00;102725.63;4949048;29;20110;-75
2023/04/03 04:17:32;;;;;;;14.50;3.75;;;;;;;-3.70;100.00;102737.84;4947370;28;20586;-76
2023/04/03 04:19:58;;;;;;;10.52;4.32;;;;;;;-3.78;100.00;102714.47;4936015;29;20044;-75
2023/04/03 04:22:23;;;;;;;7.38;2.72;;;;;;;-3.76;100.00;102730.13;4919905;29;20507;-75
2023/04/03 04:24:49;;;;;;;17.40;3.30;;;;;;;-3.79;100.00;102728.41;4939568;29;20032;-78
2023/04/03 04:27:15;;;;;;;;;;;;;;;-3.75;100.00;102732.69;4936392;29;20030;-76
2023/04/03 04:29:41;;;;;;;8.52;3.03;;;;;;;-3.71;100.00;102751.78;4939320;28;19977;-78
2023/04/03 04:32:08;;;;;;;;;;;;;;;-3.75;100.00;102750.09;4935615;29;20055;-75
2023/04/03 04:34:34;;;;;;;10.82;2.83;;;;;;;-3.83;100.00;102740.63;4940996;29;19925;-76
2023/04/03 04:37:00;;;;;;;9.07;3.92;;;;;;;-3.71;100.00;102763.09;4935033;29;20446;-76
2023/04/03 04:39:26;;;;;;;14.80;5.45;;;;;;;-3.71;100.00;102772.69;4935450;29;20253;-79
2023/04/03 04:41:54;;;;;;;12.98;4.68;;;;;;;-3.77;100.00;102764.91;4940011;29;20035;-75
2023/04/03 04:44:20;;;;;;;14.27;5.28;;;;;;;-3.73;100.00;102769.22;4935916;29;20035;-76
2023/04/03 04:46:45;;;;;;;;;;;;;;;-3.69;100.00;102776.13;4939324;28;20083;-76
2023/04/03 04:49:11;;;;;;;;;;;;;;;-3.72;100.00;102771.81;4935574;29;19957;-78
2023/04/03 04:51:36;;;;;;;7.90;3.08;;;;;;;-3.73;100.00;102771.84;4941737;28;20321;-76
2023/04/03 04:54:02;;;;;;;13.95;3.70;;;;;;;-3.70;100.00;102783.09;4934652;29;20048;-76
2023/04/03 04:56:28;;;;;;;9.35;2.97;;;;;;;-3.71;100.00;102789.19;4934312;28;20110;-77
2023/04/03 04:58:55;;;;;;;11.20;2.60;;;;;;;-3.76;100.00;102783.19;4937087;29;20044;-75
2023/04/03 05:01:21;;;;;;;6.38;2.80;;;;;;;-3.77;100.00;102775.34;4944281;29;20066;-76
2023/04/03 05:04:02;;;;;;;14.27;3.58;;;;;;;-3.71;100.00;102777.91;4948621;28;20593;-75
2023/04/03 05:06:29;;;;;;;10.63;3.85;;;;;;;-3.70;100.00;102779.59;4948741;29;20122;-75
2023/04/03 05:08:55;;;;;;;10.75;4.07;;;;;;;-3.57;100.00;102791.63;4948122;29;20035;-75
2023/04/03 05:11:21;;;;;;;10.38;3.58;;;;;;;-3.57;100.00;102796.84;4933095;29;20034;-76
2023/04/03 05:13:49;;;;;;;14.00;4.00;;;;;;;-3.55;100.00;102794.22;4948550;28;20400;-75
2023/04/03 05:16:15;;;;;;;7.93;3.17;;;;;;;-3.53;100.00;102798.53;4948915;29;20023;-75
2023/04/03 05:18:41;;;;;;;14.13;3.42;;;;;;;-3.58;100.00;102784.69;4948419;29;20062;-76
2023/04/03 05:21:10;;;;;;;14.82;3.05;;;;;;;-3.43;100.00;102807.94;4948536;29;20039;-75
2023/04/03 05:23:36;;;;;;;10.90;3.88;;;;;;;-3.30;100.00;102820.81;4933901;29;20123;-74
2023/04/03 05:26:03;;;;;;;11.25;4.63;;;;;;;-3.32;100.00;102817.41;4948773;29;20051;-76
2023/04/03 05:28:30;;;;;;;13.98;3.78;;;;;;;-3.25;100.00;102821.66;4947949;28;20024;-76
2023/04/03 05:30:56;;;;;;;11.32;4.07;;;;;;;-3.18;100.00;102828.50;4948467;29;20497;-75
2023/04/03 05:33:24;;;;;;;15.32;5.43;;;;;;;-3.17;100.00;102840.66;4932123;29;20035;-76
2023/04/03 05:35:53;;;;;;;11.15;3.72;;;;;;;-3.12;100.00;102838.84;4947837;29;20040;-76
2023/04/03 05:38:23;;;;;;;9.52;5.20;;;;;;;-3.00;100.00;102856.09;4932528;29;20508;-74
2023/04/03 05:40:49;;;;;;;9.65;4.57;;;;;;;-2.93;100.00;102856.88;4948009;28;20046;-76
2023/04/03 05:43:15;;;;;;;11.35;4.18;;;;;;;-2.79;100.00;102858.38;4947315;28;20119;-75
2023/04/03 05:45:43;;;;;;;10.68;2.80;;;;;;;-2.71;100.00;102873.09;4919283;29;20036;-77
2023/04/03 05:48:08;;;;;;;8.55;3.78;;;;;;;-2.57;100.00;102892.88;4915685;29;20039;-75
2023/04/03 05:50:33;;;;;;;8.45;3.28;;;;;;;-2.45;100.00;102901.41;4939717;28;20505;-75
2023/04/03 05:53:02;;;;;;;17.27;4.85;;;;;;;-2.36;100.00;102907.34;4937067;29;20056;-75
2023/04/03 05:55:29;;;;;;;12.52;3.67;;;;;;;-2.23;100.00;102921.06;4942591;28;20165;-74
2023/04/03 05:57:54;;;;;;;11.45;3.45;;;;;;;-2.07;100.00;102928.66;4933240;29;20040;-76
2023/04/03 06:00:21;;;;;;;8.35;3.13;;;;;;;-1.96;100.00;102942.44;4934075;29;20035;-77
2023/04/03 06:02:54;;;;;;;7.95;3.13;;;;;;;-0.82;100.00;103000.41;4937603;29;20414;-76
2023/04/03 06:05:22;;;;;;;8.32;3.40;;;;;;;1.23;100.00;103066.06;4934230;29;20071;-76
2023/04/03 06:07:49;;;;;;;4.38;1.70;;;;;;;2.89;100.00;103059.75;4937600;28;20498;-75
2023/04/03 06:10:15;;;;;;;;;;;;;;;4.12;100.00;103018.81;4934218;29;20032;-76
2023/04/03 06:12:40;;;;;;;22.67;3.20;;;;;;;4.95;100.00;102950.75;4925558;29;20029;-75
2023/04/03 06:15:08;;;;;;;3.40;1.92;;;;;;;5.73;100.00;102872.72;4940103;29;20071;-76
2023/04/03 06:17:33;;;;;;;6.38;2.35;;;;;;;6.22;100.00;102750.81;4939279;29;20035;-75
2023/04/03 06:19:58;;;;;;;6.55;2.70;;;;;;;6.55;100.00;102590.63;4940883;29;20087;-76
2023/04/03 06:22:25;;;;;;;8.88;2.47;;;;;;;6.78;100.00;102394.63;4937294;29;20406;-76
2023/04/03 06:24:51;;;;;;;10.77;2.83;;;;;;;7.09;100.00;102106.66;4945815;28;20488;-77
2023/04/03 06:27:16;;;;;;;5.73;2.20;;;;;;;7.44;100.00;101861.53;4935240;29;20159;-78
2023/04/03 06:29:42;;;;;;;8.13;2.72;;;;;;;7.47;100.00;101564.56;4930220;29;20047;-76
2023/04/03 06:32:07;;;;;;;5.70;2.57;;;;;;;7.87;100.00;101388.53;4920756;29;20114;-76
2023/04/03 06:34:33;;;;;;;7.17;2.90;;;;;;;8.06;100.00;101091.81;4930370;29;20478;-77
2023/04/03 06:36:58;;;;;;;7.18;2.75;;;;;;;8.44;100.00;101020.00;4944961;29;20036;-76
2023/04/03 06:39:24;;;;;;;6.27;2.37;;;;;;;8.85;100.00;100970.06;4944665;29;20036;-76
2023/04/03 06:41:50;;;;;;;5.68;2.55;;;;;;;9.13;100.00;100762.31;4944517;29;20028;-76
2023/04/03 06:44:17;;;;;;;9.38;2.85;;;;;;;9.21;100.00;100586.56;4940913;29;20047;-77
2023/04/03 06:46:43;;;;;;;6.05;2.50;;;;;;;9.18;100.00;100459.03;4918979;29;20086;-77
2023/04/03 06:49:09;;;;;;;5.18;2.40;;;;;;;9.13;99.12;100304.22;4928614;29;20042;-76
2023/04/03 06:51:35;;;;;;;5.97;2.50;;;;;;;8.72;99.40;100394.59;4944642;29;20020;-75
2023/04/03 06:54:01;;;;;;;4.68;2.38;;;;;;;8.39;99.51;100399.69;4944519;28;20275;-76
2023/04/03 06:56:27;;;;;;;8.18;2.80;;;;;;;8.35;99.42;100462.19;4927042;29;20056;-76
2023/04/03 06:58:54;;;;;;;7.13;2.72;;;;;;;8.58;98.73;100514.94;4929620;29;20039;-75
2023/04/03 07:01:20;;;;;;;6.85;2.55;;;;;;;8.76;97.20;100472.31;4928613;29;20444;-76
2023/04/03 07:03:47;;;;;;;4.22;1.98;;;;;;;8.77;94.88;100349.69;4921493;29;20870;-78
2023/04/03 07:06:14;;;;;;;7.03;2.70;;;;;;;8.93;94.60;100417.31;4944323;29;20052;-75
2023/04/03 07:08:42;;;;;;;8.43;2.70;;;;;;;8.91;93.15;100339.44;4928289;29;20266;-77
2023/04/03 07:11:08;;;;;;;6.15;1.80;;;;;;;8.70;91.68;100202.28;4929880;29;20070;-78
2023/04/03 07:13:33;;;;;;;6.97;2.08;;;;;;;8.55;90.09;100057.59;4919616;29;20063;-76
2023/04/03 07:15:58;;;;;;;5.37;2.43;;;;;;;8.62;90.32;100163.19;4939404;29;20123;-76
2023/04/03 07:18:25;;;;;;;4.73;2.30;;;;;;;7.95;89.43;99974.41;4932967;29;20043;-76
2023/04/03 07:20:50;;;;;;;;;;;;;;;8.25;90.53;100248.69;4936941;28;20119;-77
2023/04/03 07:23:16;;;;;;;7.15;2.17;;;;;;;7.15;87.38;99712.03;4924900;29;20384;-78
2023/04/03 07:25:46;;;;;;;5.60;1.98;;;;;;;6.16;90.71;99954.00;4940929;28;20035;-77
2023/04/03 07:28:12;;;;;;;5.47;2.03;;;;;;;6.87;91.46;100299.75;4928243;29;20579;-79
2023/04/03 07:30:49;;;;;;;9.50;2.10;;;;;;;6.80;88.98;100071.34;4937705;29;20024;-77
2023/04/03 07:33:16;;;;;;;3.28;1.20;;;;;;;5.75;86.99;99611.09;4930723;29;20035;-77
2023/04/03 07:35:43;;;;;;;7.57;2.00;;;;;;;5.39;88.47;99815.91;4937046;28;20040;-80
2023/04/03 07:38:08;;;;;;;;;;;;;;;5.66;88.49;99939.44;4917440;29;20036;-77
2023/04/03 07:40:34;;;;;;;4.15;1.02;;;;;;;5.66;86.52;99804.38;4935597;28;19915;-76
2023/04/03 07:43:00;;;;;;;3.30;1.35;;;;;;;6.46;85.82;99989.00;4936175;28;20482;-77
2023/04/03 07:45:26;;;;;;;5.72;1.38;;;;;;;6.59;83.68;99764.00;4917020;29;20465;-77
2023/04/03 07:47:52;;;;;;;5.35;1.05;;;;;;;6.26;79.83;99294.72;4933692;29;20043;-76
2023/04/03 07:50:18;;;;;;;5.18;0.80;;;;;;;6.09;77.36;99021.03;4932389;29;20085;-77
2023/04/03 07:52:44;;;;;;;3.45;0.90;;;;;;;6.24;77.29;99145.66;4938547;28;20492;-76
2023/04/03 07:55:10;;;;;;;2.10;0.90;;;;;;;6.26;75.77;99044.78;4925899;29;20027;-77
2023/04/03 07:57:36;;;;;;;4.20;0.82;;;;;;;6.33;75.87;99091.59;4937842;28;20031;-78
2023/04/03 08:00:02;;;;;;;2.97;0.70;;;;;;;7.16;76.67;99482.78;4939743;29;20036;-79
2023/04/03 08:02:37;;;;;;;;;;;;;;;7.58;74.12;99290.34;4924363;29;20031;-78
2023/04/03 08:05:02;;;;;;;;;;;;;;;6.73;73.34;98966.84;4943248;29;19919;-78
2023/04/03 08:07:27;;;;;;;3.93;1.00;;;;;;;6.88;72.84;99007.47;4923381;29;19944;-77
2023/04/03 08:09:53;;;;;;;5.63;1.47;;;;;;;6.94;72.61;99080.22;4927987;29;20039;-77
2023/04/03 08:12:18;;;;;;;4.43;1.73;;;;;;;7.06;72.72;99179.59;4930059;29;20036;-76
2023/04/03 08:14:44;;;;;;;4.47;1.37;;;;;;;7.22;72.17;99168.03;4936515;29;20478;-77
2023/04/03 08:17:11;;;;;;;2.63;1.07;;;;;;;8.44;71.74;99519.59;4932654;29;20082;-77
2023/04/03 08:19:40;;;;;;;4.00;0.90;;;;;;;8.66;69.98;99306.88;4922478;29;20050;-78
2023/04/03 08:22:06;;;;;;;5.43;0.80;;;;;;;7.65;69.30;98897.34;4935865;29;20146;-78
2023/04/03 08:24:33;;;;;;;3.63;1.40;;;;;;;8.80;69.78;99448.94;4938002;28;20650;-78
2023/04/03 08:26:58;;;;;;;3.53;1.00;;;;;;;7.99;68.88;99050.81;4928934;29;20051;-76
2023/04/03 08:29:24;;;;;;;5.67;0.80;;;;;;;8.64;68.26;99242.44;4932418;29;20398;-77
2023/04/03 08:31:50;;;;;;;3.35;0.80;;;;;;;8.74;66.98;99111.75;4938461;29;20123;-77
2023/04/03 08:34:16;;;;;;;5.05;1.15;;;;;;;8.82;66.75;99085.00;4917483;29;20159;-76
2023/04/03 08:36:42;;;;;;;4.70;1.30;;;;;;;9.78;70.21;99945.34;4921523;29;20031;-78
2023/04/03 08:39:07;;;;;;;4.70;2.05;;;;;;;8.52;70.74;99574.59;4884987;29;20488;-78
2023/04/03 08:41:39;;;;;;;4.30;0.97;;;;;;;8.08;67.71;99056.00;4856135;29;20072;-76
2023/04/03 08:44:22;;;;;;;5.72;1.05;;;;;;;9.96;68.41;99849.88;4935934;29;20051;-79
2023/04/03 08:47:14;;;;;;;4.88;0.93;;;;;;;10.74;64.75;99540.75;4940742;28;20040;-79
2023/04/03 08:49:54;;;;;;;6.25;1.05;;;;;;;11.56;64.74;99803.88;4901835;28;20351;-81
2023/04/03 08:52:31;;;;;;;4.03;0.90;;;;;;;9.80;61.26;98613.31;4893859;29;20048;-79
2023/04/03 08:55:03;;;;;;;5.15;1.23;;;;;;;11.13;60.89;99189.50;4893156;28;20087;-78
2023/04/03 08:57:39;;;;;;;2.10;1.13;;;;;;;10.66;59.49;98705.53;4847869;29;20055;-77
2023/04/03 09:00:14;;;;;;;4.72;1.60;;;;;;;10.07;59.02;98433.56;4947570;29;20031;-77
2023/04/03 09:02:46;;;;;;;5.05;1.02;;;;;;;7.71;61.89;98332.69;4949153;28;20405;-77
2023/04/03 09:05:15;;;;;;;6.00;0.90;;;;;;;9.08;61.13;98892.69;4933474;29;20035;-77
2023/04/03 09:07:50;;;;;;;1.70;0.85;;;;;;;9.26;59.81;98719.09;4928471;29;20023;-79
2023/04/03 09:10:22;;;;;;;4.82;0.85;;;;;;;8.49;59.60;98383.41;4933143;29;20047;-77
2023/04/03 09:13:07;;;;;;;3.45;0.77;;;;;;;8.06;58.48;98096.81;4948758;29;20063;-76
2023/04/03 09:15:33;;;;;;;4.10;1.58;;;;;;;8.42;60.13;98633.34;4933335;29;20036;-78
2023/04/03 09:18:04;;;;;;;3.90;0.95;;;;;;;8.75;60.84;98925.28;4934424;29;20055;-77
2023/04/03 09:21:00;;;;;;;3.80;1.25;;;;;;;8.70;60.18;98837.25;4934011;29;20067;-77
2023/04/03 09:23:43;;;;;;;3.22;1.05;;;;;;;9.59;61.06;99361.19;4928293;29;20496;-76
2023/04/03 09:26:33;;;;;;;3.60;0.77;;;;;;;11.06;59.19;99599.97;4941620;29;20502;-77
2023/04/03 09:29:04;;;;;;;5.78;1.02;;;;;;;11.33;57.12;99208.19;4946841;29;20040;-78
2023/04/03 09:31:36;;;;;;;3.80;0.98;;;;;;;10.43;57.02;98848.25;4941745;28;20038;-78
2023/04/03 09:34:06;;;;;;;5.88;1.17;;;;;;;10.64;55.85;98815.16;4900566;28;20382;-81
2023/04/03 09:36:51;;;;;;;3.45;1.23;;;;;;;11.38;54.75;98950.06;4910064;28;20020;-79
2023/04/03 09:39:25;;;;;;;2.65;0.90;;;;;;;9.93;54.90;98448.03;4909433;29;20605;-78
2023/04/03 09:42:01;;;;;;;5.35;1.05;;;;;;;8.73;55.93;98177.06;4943170;29;20110;-79
2023/04/03 09:44:33;;;;;;;3.20;0.90;;;;;;;9.15;56.95;98651.28;4947085;28;20039;-80
2023/04/03 09:47:00;;;;;;;4.53;1.42;;;;;;;9.73;57.32;98971.22;4947374;28;20051;-78
2023/04/03 09:49:26;;;;;;;3.47;1.10;;;;;;;9.90;57.75;99077.47;4947648;29;20058;-77
2023/04/03 09:51:53;;;;;;;4.05;0.82;;;;;;;9.01;56.54;98496.09;4929370;29;20416;-77
2023/04/03 09:54:37;;;;;;;4.43;1.00;;;;;;;7.66;56.80;98009.31;4932128;29;20051;-77
2023/04/03 09:57:13;;;;;;;7.03;1.48;;;;;;;8.29;59.28;98908.97;4943391;29;20494;-82
2023/04/03 09:59:44;;;;;;;;;;;;;;;10.33;57.37;99496.09;4881402;29;20048;-77
2023/04/03 10:02:15;;;;;;;2.50;1.10;;;;;;;10.83;55.44;99215.75;4934688;29;19958;-76
2023/04/03 10:04:41;;;;;;;3.75;1.20;;;;;;;9.69;54.37;98473.53;4946749;28;20119;-79
2023/04/03 10:07:35;;;;;;;2.53;0.80;;;;;;;9.44;55.44;98646.59;4947784;28;20044;-77
2023/04/03 10:10:17;;;;;;;2.65;1.15;;;;;;;8.44;55.57;98306.91;4931326;29;20743;-77
2023/04/03 10:12:43;;;;;;;7.05;1.48;;;;;;;8.00;55.51;98142.81;4932626;29;20494;-77
2023/04/03 10:15:18;;;;;;;2.17;1.13;;;;;;;9.25;55.86;98848.75;4945291;29;20028;-76
2023/04/03 10:18:13;;;;;;;3.33;0.75;;;;;;;10.67;53.43;98987.38;4932646;29;20031;-77
2023/04/03 10:20:49;;;;;;;6.90;1.40;;;;;;;9.37;54.40;98539.25;4914450;29;20028;-76
2023/04/03 10:23:24;;;;;;;4.00;1.38;;;;;;;9.70;54.07;98617.22;4933760;28;20047;-76
2023/04/03 10:26:28;;;;;;;5.40;1.00;;;;;;;10.03;53.18;98640.28;4947447;29;20044;-77
2023/04/03 10:29:21;;;;;;;2.78;0.95;;;;;;;8.93;53.12;98093.69;4916794;29;20067;-77
2023/04/03 10:32:21;;;;;;;1.42;0.93;;;;;;;9.21;55.16;98684.28;4947412;29;20046;-76
2023/04/03 10:34:47;;;;;;;3.60;0.80;;;;;;;9.35;55.59;98832.38;4932206;29;20091;-81
2023/04/03 10:37:28;;;;;;;2.60;0.98;;;;;;;9.13;55.23;98666.66;4947199;29;20023;-77
2023/04/03 10:39:58;;;;;;;3.35;0.57;;;;;;;10.52;54.26;99214.41;4928858;29;20182;-77
2023/04/03 10:42:47;;;;;;;3.00;1.00;;;;;;;9.55;54.14;98640.59;4947530;29;20678;-77
2023/04/03 10:45:58;;;;;;;1.75;1.13;;;;;;;10.79;52.42;98945.69;4947368;29;20039;-76
2023/04/03 10:48:44;;;;;;;2.42;0.98;;;;;;;10.86;51.13;98601.31;4930569;29;20102;-78
2023/04/03 10:51:22;;;;;;;3.33;1.13;;;;;;;10.54;51.66;98686.72;4931038;29;20106;-78
2023/04/03 10:54:00;;;;;;;2.83;1.17;;;;;;;12.19;50.87;99194.75;4946730;28;20039;-77
2023/04/03 10:56:42;;;;;;;2.22;0.80;;;;;;;11.77;48.56;98373.44;4930309;29;20032;-80
2023/04/03 10:59:18;;;;;;;1.40;0.70;;;;;;;10.73;47.69;97710.94;4932144;29;20425;-76
2023/04/03 11:01:53;;;;;;;3.75;0.90;;;;;;;8.47;49.94;97249.34;4932060;29;20035;-76
2023/04/03 11:04:22;;;;;;;1.60;0.63;;;;;;;7.14;51.54;97156.81;4930667;29;20039;-78
2023/04/03 11:07:12;;;;;;;6.35;0.70;;;;;;;7.96;52.69;97979.53;4930582;29;20119;-76
2023/04/03 11:09:43;;;;;;;4.28;1.67;;;;;;;8.10;52.60;98075.94;4946186;29;20127;-77
2023/04/03 11:12:40;;;;;;;2.63;0.88;;;;;;;7.41;52.46;97746.41;4916707;29;20051;-78
2023/04/03 11:15:20;;;;;;;1.60;0.70;;;;;;;7.21;51.87;97594.47;4883530;29;20044;-80
2023/04/03 11:17:54;;;;;;;2.92;0.98;;;;;;;6.94;52.66;97692.84;4873207;29;20029;-77
2023/04/03 11:20:27;;;;;;;2.60;0.90;;;;;;;7.95;51.62;98042.47;4876274;29;20513;-76
2023/04/03 11:23:04;;;;;;;3.30;1.20;;;;;;;9.78;51.84;98896.00;4868610;29;20037;-76
2023/04/03 11:25:33;;;;;;;1.08;0.75;;;;;;;11.13;51.36;99363.94;4866290;29;20048;-78
2023/04/03 11:28:02;;;;;;;3.17;0.90;;;;;;;9.99;48.84;98135.28;4875486;29;20044;-78
2023/04/03 11:30:30;;;;;;;6.43;1.35;;;;;;;9.26;49.73;97998.38;4880771;29;20052;-78
2023/04/03 11:33:07;;;;;;;1.55;0.80;;;;;;;8.49;50.26;97840.94;4856607;29;20583;-77
2023/04/03 11:35:34;;;;;;;2.30;0.68;;;;;;;10.24;50.28;98769.06;4854960;29;20145;-76
2023/04/03 11:38:05;;;;;;;3.35;0.77;;;;;;;9.57;47.88;97860.75;4865640;29;20128;-77